Time;durP1;ratioP1;P1;durP2;ratioP2;P2;SDS_P1;SDS_P2;PMS_P1;PMS_P2;Temp;Humidity;BMP_temperature;BMP_pressure;BME280_temperature;BME280_humidity;BME280_pressure;Samples;Min_cycle;Max_cycle;Signal;HPM_P1;HPM_P2
2022/05/10 00:00:01;;;;;;;18.05;14.95;;;20.20;52.60;;;14.52;77.02;101845.13;172761;28;879;-71
2022/05/10 00:00:11;;;;;;;18.60;14.98;;;20.10;52.50;;;14.53;76.66;101851.22;172754;28;1125;-71
2022/05/10 00:00:21;;;;;;;18.08;14.91;;;20.20;52.50;;;14.52;76.57;101839.00;172733;28;1271;-70
2022/05/10 00:00:27;;;;;;;18.30;15.00;;;20.20;52.50;;;14.51;76.39;101843.41;172761;28;1148;-71
2022/05/10 00:00:33;;;;;;;18.17;14.77;;;20.10;52.50;;;14.51;76.55;101840.75;172764;28;989;-70
2022/05/10 00:00:39;;;;;;;18.92;15.00;;;20.10;52.40;;;14.52;76.58;101844.25;172748;28;1061;-70
2022/05/10 00:00:45;;;;;;;18.90;14.90;;;20.10;52.40;;;14.50;76.67;101844.31;172758;28;1128;-71
2022/05/10 00:00:58;;;;;;;18.77;14.82;;;20.10;52.40;;;14.50;76.56;101840.81;172652;28;943;-71
2022/05/10 00:01:23;;;;;;;18.60;14.91;;;20.20;52.50;;;14.49;76.77;101840.00;172040;28;1273;-71
2022/05/10 00:01:35;;;;;;;17.46;15.21;;;20.20;52.50;;;14.48;76.88;101842.69;173418;28;1264;-71
2022/05/10 00:01:42;;;;;;;17.08;15.31;;;20.10;52.60;;;14.49;76.84;101844.38;172638;28;1835;-71
2022/05/10 00:01:48;;;;;;;17.22;15.14;;;20.10;52.60;;;14.47;76.79;101841.81;172705;28;1089;-71
2022/05/10 00:01:54;;;;;;;17.57;15.03;;;20.10;52.50;;;14.47;76.64;101836.56;172774;28;1097;-71
2022/05/10 00:02:01;;;;;;;18.27;15.20;;;20.10;52.50;;;14.47;76.95;101841.81;172752;28;982;-70
2022/05/10 00:02:12;;;;;;;19.00;14.90;;;20.10;52.60;;;14.48;77.36;101840.06;172780;28;1143;-70
2022/05/10 00:02:18;;;;;;;18.99;15.06;;;20.10;52.50;;;14.47;76.74;101838.38;172788;28;1278;-70
2022/05/10 00:02:24;;;;;;;18.52;15.07;;;20.10;52.50;;;14.46;76.71;101837.50;172740;28;895;-71
2022/05/10 00:02:34;;;;;;;17.95;14.75;;;20.10;52.50;;;14.47;76.91;101841.00;172797;28;922;-73
2022/05/10 00:02:40;;;;;;;16.93;14.53;;;20.10;52.50;;;14.47;76.76;101846.25;172753;28;1073;-71
2022/05/10 00:02:53;;;;;;;17.50;14.48;;;20.10;52.50;;;14.47;76.53;101835.72;173358;28;1055;-70
2022/05/10 00:03:04;;;;;;;18.35;14.61;;;20.10;52.50;;;14.45;77.00;101843.69;172777;28;1537;-71
2022/05/10 00:03:10;;;;;;;18.50;14.63;;;20.10;52.60;;;14.45;76.97;101842.81;173335;28;928;-70
2022/05/10 00:03:18;;;;;;;18.33;14.73;;;20.10;52.70;;;14.44;77.33;101838.50;173440;28;1046;-71
2022/05/10 00:03:37;;;;;;;17.62;14.53;;;20.10;52.70;;;14.44;77.49;101838.50;173405;28;1121;-70
2022/05/10 00:03:43;;;;;;;18.08;14.64;;;20.10;52.70;;;14.42;77.54;101839.41;174124;28;1250;-71
2022/05/10 00:03:50;;;;;;;19.80;15.27;;;20.10;52.80;;;14.41;77.23;101837.69;174111;28;1160;-71
2022/05/10 00:03:58;;;;;;;20.34;15.50;;;20.10;52.80;;;14.40;77.18;101833.34;174135;28;970;-71
2022/05/10 00:04:09;;;;;;;18.17;15.50;;;20.10;52.80;;;14.41;77.51;101834.22;174113;28;1005;-71
2022/05/10 00:04:15;;;;;;;17.49;15.59;;;20.10;52.80;;;14.40;77.35;101835.13;174111;28;1262;-70
2022/05/10 00:04:21;;;;;;;17.00;15.20;;;20.10;52.80;;;14.40;77.42;101835.97;174121;28;1101;-70
2022/05/10 00:04:27;;;;;;;16.90;15.10;;;20.10;52.80;;;14.39;77.45;101836.91;174114;28;1184;-70
2022/05/10 00:04:33;;;;;;;16.87;14.93;;;20.10;52.80;;;14.40;77.47;101835.97;173356;28;1479;-71
2022/05/10 00:04:40;;;;;;;17.83;14.85;;;20.10;52.90;;;14.39;77.54;101836.03;173417;28;1041;-70
2022/05/10 00:04:51;;;;;;;19.03;14.90;;;20.10;52.90;;;14.38;77.59;101832.59;172869;28;990;-71
2022/05/10 00:04:57;;;;;;;18.16;15.02;;;20.10;52.90;;;14.38;77.58;101836.97;172122;28;1447;-70
2022/05/10 00:05:06;;;;;;;18.63;15.10;;;20.00;52.90;;;14.38;77.49;101837.84;172659;28;1006;-71
2022/05/10 00:05:11;;;;;;;18.60;15.03;;;20.10;52.90;;;14.37;77.56;101830.84;172704;28;1192;-71
2022/05/10 00:05:32;;;;;;;18.55;14.95;;;20.10;52.90;;;14.37;77.65;101833.47;172758;28;1117;-71
2022/05/10 00:05:42;;;;;;;18.79;15.18;;;20.10;52.90;;;14.35;77.79;101837.97;172727;28;1262;-71
2022/05/10 00:05:48;;;;;;;17.37;15.14;;;20.00;52.90;;;14.35;77.87;101835.34;172720;28;1138;-71
2022/05/10 00:05:54;;;;;;;16.73;14.70;;;20.00;52.90;;;14.34;77.57;101830.97;172745;28;954;-71
2022/05/10 00:06:00;;;;;;;16.63;14.82;;;20.00;52.90;;;14.34;77.59;101836.22;172812;28;907;-71
2022/05/10 00:06:08;;;;;;;17.48;15.10;;;20.00;52.90;;;14.35;77.76;101834.47;172745;28;939;-71
2022/05/10 00:06:14;;;;;;;16.82;14.98;;;20.00;52.90;;;14.33;77.91;101831.91;172776;28;935;-71
2022/05/10 00:06:20;;;;;;;17.10;15.07;;;20.00;52.90;;;14.34;77.79;101845.91;172781;28;1578;-71
2022/05/10 00:06:41;;;;;;;18.00;15.27;;;20.00;52.90;;;14.32;77.73;101838.09;172769;28;1172;-71
2022/05/10 00:06:50;;;;;;;21.39;15.54;;;20.00;52.90;;;14.31;77.82;101832.91;172645;28;1560;-71
2022/05/10 00:06:57;;;;;;;22.79;15.81;;;20.00;52.90;;;14.31;77.72;101836.38;173054;28;1133;-71
2022/05/10 00:07:03;;;;;;;21.43;15.53;;;20.00;52.90;;;14.30;77.79;101834.66;173460;28;1105;-71
2022/05/10 00:07:09;;;;;;;21.70;15.66;;;20.10;53.00;;;14.29;78.10;101833.81;173411;28;939;-71
2022/05/10 00:07:17;;;;;;;18.73;15.75;;;20.00;52.90;;;14.30;77.85;101834.66;173451;28;1128;-71
2022/05/10 00:07:30;;;;;;;18.70;15.83;;;20.00;52.90;;;14.29;78.16;101838.22;172654;28;1249;-71
2022/05/10 00:07:38;;;;;;;18.51;16.15;;;20.00;52.90;;;14.28;77.90;101837.38;172749;28;1261;-71
2022/05/10 00:07:44;;;;;;;20.07;16.20;;;20.00;52.90;;;14.27;77.88;101834.81;172728;28;1064;-71
2022/05/10 00:07:52;;;;;;;20.65;16.20;;;20.00;52.90;;;14.27;78.11;101830.41;172749;28;1108;-71
2022/05/10 00:07:59;;;;;;;21.47;16.13;;;20.00;52.90;;;14.27;78.00;101832.19;172763;28;1180;-71
2022/05/10 00:08:12;;;;;;;21.67;16.43;;;20.00;53.00;;;14.27;77.94;101832.19;172733;28;1113;-71
2022/05/10 00:08:19;;;;;;;20.98;16.21;;;20.00;53.00;;;14.27;78.13;101832.19;172742;28;1288;-71
2022/05/10 00:08:25;;;;;;;20.53;16.07;;;20.00;53.00;;;14.26;78.03;101833.94;172764;28;1140;-70
2022/05/10 00:08:32;;;;;;;19.40;15.65;;;20.00;53.00;;;14.27;78.12;101837.44;172004;28;1106;-71
2022/05/10 00:08:40;;;;;;;20.57;15.35;;;20.00;53.00;;;14.25;77.94;101832.25;172060;28;1113;-71
2022/05/10 00:08:46;;;;;;;20.55;15.35;;;20.00;53.00;;;14.25;78.28;101832.25;172491;28;2083;-71
2022/05/10 00:08:52;;;;;;;19.97;15.20;;;20.00;53.00;;;14.25;77.92;101831.38;172694;28;1085;-71
2022/05/10 00:08:58;;;;;;;20.50;15.45;;;20.00;53.00;;;14.25;78.18;101834.00;172788;28;1116;-71
2022/05/10 00:09:07;;;;;;;19.98;15.50;;;20.00;53.00;;;14.25;77.98;101834.00;172756;28;920;-71
2022/05/10 00:09:17;;;;;;;18.67;15.77;;;20.00;53.00;;;14.25;78.17;101834.00;172671;28;1149;-71
2022/05/10 00:09:29;;;;;;;18.46;15.79;;;20.00;53.00;;;14.23;78.09;101823.56;173104;28;1270;-71
2022/05/10 00:09:34;;;;;;;17.75;15.70;;;20.00;53.00;;;14.23;77.92;101834.06;173444;28;907;-71
2022/05/10 00:09:40;;;;;;;17.53;15.60;;;20.00;53.10;;;14.24;78.32;101834.94;173441;28;828;-70
2022/05/10 00:09:47;;;;;;;17.55;15.52;;;20.00;53.10;;;14.23;78.02;101828.00;173428;28;926;-71
2022/05/10 00:09:52;;;;;;;17.73;15.48;;;20.00;53.00;;;14.24;78.17;101829.69;173447;28;1085;-71
2022/05/10 00:09:59;;;;;;;18.58;15.73;;;20.00;53.00;;;14.23;78.22;101828.00;173469;28;1038;-71
2022/05/10 00:10:10;;;;;;;19.28;15.72;;;20.00;53.00;;;14.23;77.98;101822.75;173430;28;1176;-71
2022/05/10 00:10:17;;;;;;;21.61;15.80;;;19.90;53.00;;;14.22;78.19;101832.38;173402;28;1247;-71
2022/05/10 00:10:23;;;;;;;22.24;16.38;;;20.00;53.00;;;14.22;78.00;101835.00;173435;28;1077;-71
2022/05/10 00:10:29;;;;;;;21.60;16.40;;;19.90;53.00;;;14.22;78.07;101826.25;173500;28;1010;-71
2022/05/10 00:10:37;;;;;;;22.10;16.63;;;20.00;53.00;;;14.22;77.95;101831.50;173338;28;1122;-71
2022/05/10 00:10:45;;;;;;;21.65;16.80;;;20.00;53.00;;;14.21;78.19;101835.94;173419;28;970;-71
2022/05/10 00:10:51;;;;;;;23.02;16.97;;;20.00;53.00;;;14.21;78.30;101829.81;173314;28;1296;-71
2022/05/10 00:10:57;;;;;;;21.73;16.80;;;20.00;53.00;;;14.21;78.27;101835.06;173457;28;930;-71
2022/05/10 00:11:03;;;;;;;21.67;16.98;;;20.00;53.00;;;14.20;78.30;101825.47;173443;28;1088;-71
2022/05/10 00:11:09;;;;;;;21.58;17.13;;;19.90;53.00;;;14.20;78.13;101834.19;173435;28;977;-71
2022/05/10 00:11:15;;;;;;;19.88;17.00;;;19.90;53.00;;;14.20;78.01;101828.09;173374;28;1089;-71
2022/05/10 00:11:22;;;;;;;19.70;17.00;;;19.90;53.00;;;14.20;77.94;101828.09;173397;28;644;-71
2022/05/10 00:11:28;;;;;;;22.30;16.90;;;19.90;53.00;;;14.19;78.13;101831.66;173461;28;946;-71
2022/05/10 00:11:35;;;;;;;22.50;16.90;;;19.90;53.00;;;14.19;78.04;101826.41;173454;28;931;-71
2022/05/10 00:11:42;;;;;;;21.75;16.38;;;20.00;53.00;;;14.19;78.05;101827.25;173436;28;1018;-71
2022/05/10 00:11:49;;;;;;;22.03;16.27;;;19.90;53.00;;;14.19;78.37;101836.91;173472;28;887;-72
2022/05/10 00:11:58;;;;;;;22.08;16.08;;;19.90;53.00;;;14.19;78.44;101823.78;173407;28;1168;-71
2022/05/10 00:12:05;;;;;;;21.19;15.91;;;19.90;53.00;;;14.18;78.15;101827.31;173420;28;1088;-71
2022/05/10 00:12:11;;;;;;;21.70;16.02;;;19.90;53.00;;;14.18;78.44;101828.16;173418;28;1488;-71
2022/05/10 00:12:16;;;;;;;21.33;15.87;;;19.90;53.10;;;14.18;78.23;101832.56;173487;28;923;-71
2022/05/10 00:12:22;;;;;;;20.73;15.77;;;19.90;53.10;;;14.17;78.35;101826.47;173436;28;1104;-71
2022/05/10 00:12:28;;;;;;;20.38;15.88;;;19.90;53.10;;;14.17;78.35;101823.84;173419;28;1009;-71
2022/05/10 00:12:34;;;;;;;19.88;15.82;;;19.90;53.10;;;14.17;78.51;101826.47;173735;28;863;-71
2022/05/10 00:12:40;;;;;;;19.75;15.93;;;19.90;53.10;;;14.17;78.34;101829.09;174126;28;898;-71
2022/05/10 00:12:46;;;;;;;19.77;15.95;;;19.90;53.20;;;14.16;78.71;101828.22;174125;28;859;-71
2022/05/10 00:12:53;;;;;;;19.60;15.85;;;19.90;53.20;;;14.16;78.52;101825.59;173550;28;863;-71
2022/05/10 00:12:59;;;;;;;19.48;15.84;;;19.90;53.20;;;14.16;78.34;101830.84;172523;28;920;-72
2022/05/10 00:13:06;;;;;;;18.80;15.83;;;19.90;53.20;;;14.16;78.70;101827.38;172748;28;970;-71
2022/05/10 00:13:14;;;;;;;18.50;15.73;;;19.90;53.20;;;14.17;78.70;101831.72;173506;28;946;-71
2022/05/10 00:13:20;;;;;;;18.35;15.90;;;19.90;53.30;;;14.15;78.45;101826.53;173432;28;980;-71
2022/05/10 00:13:27;;;;;;;18.58;16.00;;;19.90;53.20;;;14.15;78.67;101833.53;173422;28;1029;-71
2022/05/10 00:13:32;;;;;;;18.58;16.14;;;19.90;53.20;;;14.15;78.69;101831.78;173501;28;986;-71
2022/05/10 00:13:39;;;;;;;18.17;15.87;;;19.90;53.20;;;14.15;78.44;101831.78;173474;28;1041;-71
2022/05/10 00:14:04;;;;;;;17.70;15.80;;;19.90;53.20;;;14.13;78.56;101828.34;173505;28;922;-71
2022/05/10 00:14:10;;;;;;;17.59;15.14;;;19.90;53.30;;;14.13;78.79;101825.72;173460;28;1266;-71
2022/05/10 00:14:16;;;;;;;17.67;14.20;;;19.90;53.40;;;14.13;78.84;101828.34;173471;28;1223;-71
2022/05/10 00:14:22;;;;;;;17.67;13.83;;;19.90;53.40;;;14.13;79.01;101828.34;173491;28;973;-71
2022/05/10 00:14:29;;;;;;;17.70;13.90;;;19.90;53.50;;;14.13;79.02;101825.72;173332;28;919;-72
2022/05/10 00:14:35;;;;;;;16.02;13.86;;;19.90;53.50;;;14.13;79.01;101828.34;173419;28;990;-72
2022/05/10 00:14:41;;;;;;;15.50;13.82;;;19.90;53.50;;;14.12;79.03;101826.66;173450;28;1111;-72
2022/05/10 00:14:47;;;;;;;15.27;13.68;;;19.90;53.50;;;14.12;79.06;101821.41;173439;28;1049;-71
2022/05/10 00:14:53;;;;;;;15.38;13.82;;;19.90;53.60;;;14.11;79.36;101827.59;173409;28;982;-70
2022/05/10 00:14:59;;;;;;;15.65;14.00;;;19.90;53.60;;;14.12;79.16;101831.91;173413;28;1089;-70
2022/05/10 00:15:06;;;;;;;16.02;14.25;;;19.90;53.60;;;14.11;79.39;101824.09;173404;28;930;-71
2022/05/10 00:15:12;;;;;;;16.58;14.67;;;19.90;53.60;;;14.12;79.49;101829.28;173426;28;1082;-71
2022/05/10 00:15:19;;;;;;;17.27;15.35;;;19.90;53.70;;;14.10;79.40;101823.22;173464;28;907;-70
2022/05/10 00:15:25;;;;;;;17.63;15.50;;;19.80;53.70;;;14.10;79.53;101828.47;173402;28;981;-70
2022/05/10 00:15:33;;;;;;;17.50;15.48;;;19.90;53.70;;;14.10;79.55;101833.72;173394;28;1085;-72
2022/05/10 00:15:41;;;;;;;17.53;15.70;;;19.90;53.70;;;14.09;79.38;101820.69;173459;28;1036;-71
2022/05/10 00:15:47;;;;;;;17.33;15.53;;;19.80;53.70;;;14.09;79.63;101832.03;173433;28;958;-71
2022/05/10 00:15:53;;;;;;;17.97;15.50;;;19.80;53.70;;;14.07;79.59;101826.00;173460;28;1001;-71
2022/05/10 00:15:59;;;;;;;18.07;15.47;;;19.90;53.70;;;14.07;79.51;101823.38;173462;28;1022;-71
2022/05/10 00:16:12;;;;;;;17.48;15.20;;;19.90;53.80;;;14.07;79.48;101828.63;173400;28;907;-71
2022/05/10 00:16:21;;;;;;;17.69;14.80;;;19.80;53.80;;;14.07;79.34;101827.75;173428;28;1268;-71
2022/05/10 00:16:27;;;;;;;18.07;14.63;;;19.80;53.80;;;14.06;79.75;101832.16;173431;28;1157;-71
2022/05/10 00:16:40;;;;;;;19.45;14.80;;;19.80;53.80;;;14.06;79.58;101826.91;173541;28;1081;-72
2022/05/10 00:16:51;;;;;;;21.51;15.35;;;19.80;53.80;;;14.05;79.38;101825.19;173454;28;1261;-71
2022/05/10 00:16:57;;;;;;;22.51;15.80;;;19.80;53.80;;;14.05;79.31;101830.44;173500;28;1352;-72
2022/05/10 00:17:03;;;;;;;23.30;16.13;;;19.80;53.70;;;14.05;79.55;101830.44;173550;28;1027;-71
2022/05/10 00:17:24;;;;;;;22.60;16.10;;;19.80;53.70;;;14.04;79.43;101826.97;173491;28;1053;-71
2022/05/10 00:17:40;;;;;;;20.38;15.82;;;19.80;53.70;;;14.02;79.72;101823.56;173475;28;1271;-71
2022/05/10 00:17:47;;;;;;;19.66;15.07;;;19.80;53.70;;;14.02;79.41;101827.94;173453;28;1269;-71
2022/05/10 00:17:53;;;;;;;19.12;15.23;;;19.80;53.70;;;14.02;79.84;101823.56;173465;28;972;-71
2022/05/10 00:18:00;;;;;;;19.35;15.60;;;19.80;53.80;;;14.02;79.61;101825.31;173462;28;1009;-71
2022/05/10 00:18:13;;;;;;;17.67;15.88;;;19.80;53.80;;;14.02;79.68;101826.19;173496;28;941;-71
2022/05/10 00:18:24;;;;;;;17.75;15.79;;;19.80;53.80;;;14.01;79.77;101823.63;173511;28;1271;-71
2022/05/10 00:18:30;;;;;;;17.83;15.40;;;19.80;53.80;;;14.00;79.61;101825.38;173489;28;1271;-72
2022/05/10 00:18:37;;;;;;;17.80;15.13;;;19.80;53.90;;;13.99;79.62;101826.31;173326;28;1310;-71
2022/05/10 00:18:45;;;;;;;17.90;14.93;;;19.80;53.90;;;14.01;79.90;101828.88;173459;28;1148;-71
2022/05/10 00:18:51;;;;;;;16.87;14.90;;;19.80;53.90;;;14.00;79.92;101819.28;173424;28;1093;-71
2022/05/10 00:18:57;;;;;;;17.40;15.13;;;19.80;53.90;;;13.99;79.96;101826.31;173477;28;1056;-71
2022/05/10 00:19:03;;;;;;;16.90;15.10;;;19.80;53.90;;;14.00;79.71;101829.78;173449;28;1112;-71
2022/05/10 00:19:15;;;;;;;17.35;15.25;;;19.80;53.90;;;13.99;79.81;101828.94;173430;28;899;-71
2022/05/10 00:19:27;;;;;;;17.39;15.23;;;19.80;53.90;;;13.99;80.00;101830.72;173413;28;1315;-70
2022/05/10 00:19:33;;;;;;;17.84;15.19;;;19.80;53.90;;;13.99;79.73;101820.22;173455;28;1260;-71
2022/05/10 00:19:38;;;;;;;19.37;15.20;;;19.80;53.90;;;13.97;79.72;101822.91;173348;28;1025;-72
2022/05/10 00:19:44;;;;;;;18.65;15.30;;;19.80;53.90;;;13.98;79.73;101818.50;173445;28;906;-71
2022/05/10 00:19:51;;;;;;;18.45;15.32;;;19.80;53.90;;;13.97;79.84;101820.28;172660;28;1062;-71
2022/05/10 00:19:57;;;;;;;18.20;15.32;;;19.80;53.90;;;13.97;79.79;101827.28;172732;28;1105;-74
2022/05/10 00:20:09;;;;;;;18.00;15.77;;;19.70;53.80;;;13.98;79.63;101823.75;172826;28;911;-71
2022/05/10 00:20:24;;;;;;;17.81;15.91;;;19.80;53.80;;;13.96;80.02;101820.34;172748;28;1263;-71
2022/05/10 00:20:30;;;;;;;18.52;16.26;;;19.80;53.80;;;13.96;79.57;101820.34;172764;28;1447;-72
2022/05/10 00:20:37;;;;;;;19.35;16.42;;;19.80;53.90;;;13.97;80.09;101824.66;173263;28;1049;-71
2022/05/10 00:20:46;;;;;;;19.14;16.66;;;19.80;53.90;;;13.95;79.96;101818.63;173401;28;1180;-70
2022/05/10 00:20:52;;;;;;;20.13;16.83;;;19.80;53.90;;;13.94;79.88;101816.91;173429;28;1077;-72
2022/05/10 00:20:58;;;;;;;22.65;17.45;;;19.80;53.80;;;13.95;79.84;101823.84;173414;28;1082;-71
2022/05/10 00:21:04;;;;;;;22.65;17.83;;;19.70;53.80;;;13.94;79.67;101823.03;173489;28;962;-70
2022/05/10 00:21:16;;;;;;;23.08;18.02;;;19.80;53.80;;;13.93;79.68;101821.31;173417;28;1156;-71
2022/05/10 00:21:25;;;;;;;23.16;18.19;;;19.80;53.80;;;13.94;79.46;101827.41;173440;28;1265;-71
2022/05/10 00:21:31;;;;;;;19.95;17.28;;;19.70;53.70;;;13.93;79.52;101823.09;173475;28;1018;-71
2022/05/10 00:21:36;;;;;;;19.15;16.52;;;19.70;53.70;;;13.93;79.79;101823.94;173424;28;1050;-71
2022/05/10 00:21:44;;;;;;;17.90;15.75;;;19.80;53.70;;;13.93;80.08;101826.56;173336;28;859;-71
2022/05/10 00:21:50;;;;;;;18.42;15.28;;;19.70;53.80;;;13.93;79.69;101820.47;173417;28;1085;-71
2022/05/10 00:21:56;;;;;;;19.24;15.32;;;19.70;53.80;;;13.93;80.05;101817.84;173307;28;1237;-71
2022/05/10 00:22:02;;;;;;;20.17;15.27;;;19.80;53.80;;;13.92;79.94;101824.00;173491;28;974;-72
2022/05/10 00:22:08;;;;;;;20.17;15.57;;;19.70;53.90;;;13.92;80.33;101818.75;173428;28;1010;-71
2022/05/10 00:22:14;;;;;;;20.48;15.98;;;19.70;53.90;;;13.93;80.21;101825.72;173449;28;906;-70
2022/05/10 00:22:20;;;;;;;19.52;16.13;;;19.70;53.90;;;13.92;79.81;101824.00;173435;28;907;-71
2022/05/10 00:22:27;;;;;;;19.13;16.30;;;19.70;53.90;;;13.91;80.15;101820.53;173398;28;1167;-70
2022/05/10 00:22:33;;;;;;;18.26;16.14;;;19.70;53.90;;;13.92;79.83;101824.00;173370;28;1164;-71
2022/05/10 00:22:40;;;;;;;17.77;15.88;;;19.70;54.00;;;13.91;79.81;101823.16;173441;28;1057;-70
2022/05/10 00:22:46;;;;;;;17.20;15.38;;;19.80;53.90;;;13.89;80.05;101817.97;173414;28;1089;-71
2022/05/10 00:22:53;;;;;;;16.97;15.17;;;19.70;53.90;;;13.88;80.32;101818.88;173446;28;907;-70
2022/05/10 00:22:58;;;;;;;16.73;14.93;;;19.70;53.90;;;13.89;79.89;101815.34;172649;28;1321;-71
2022/05/10 00:23:04;;;;;;;16.80;15.00;;;19.70;53.90;;;13.89;80.21;101814.50;172773;28;1096;-70
2022/05/10 00:23:10;;;;;;;17.33;15.15;;;19.70;53.90;;;13.88;80.09;101821.50;172759;28;1037;-71
2022/05/10 00:23:17;;;;;;;17.07;15.27;;;19.70;54.00;;;13.88;79.98;101821.50;172773;28;1049;-70
2022/05/10 00:23:22;;;;;;;17.65;15.48;;;19.70;54.00;;;13.87;80.03;101819.81;172780;28;962;-70
2022/05/10 00:23:28;;;;;;;18.67;15.68;;;19.70;54.00;;;13.87;80.31;101822.44;172743;28;1234;-70
2022/05/10 00:23:34;;;;;;;18.92;15.63;;;19.70;53.90;;;13.88;80.29;101823.25;172032;28;1042;-70
2022/05/10 00:23:40;;;;;;;18.55;15.43;;;19.70;54.00;;;13.85;80.14;101813.75;171329;28;907;-70
2022/05/10 00:23:46;;;;;;;19.38;15.55;;;19.70;53.90;;;13.87;80.16;101821.56;171346;28;1058;-71
2022/05/10 00:23:53;;;;;;;19.45;15.40;;;19.70;54.00;;;13.86;80.13;101828.56;171327;28;1051;-71
2022/05/10 00:23:58;;;;;;;17.70;15.30;;;19.70;53.90;;;13.85;80.09;101819.00;171420;28;1005;-70
2022/05/10 00:24:04;;;;;;;17.95;15.63;;;19.70;54.00;;;13.85;79.88;101829.50;171366;28;944;-70
2022/05/10 00:24:11;;;;;;;17.58;15.68;;;19.70;53.90;;;13.84;80.24;101822.56;171387;28;943;-70
2022/05/10 00:24:16;;;;;;;17.84;15.94;;;19.70;53.90;;;13.84;80.12;101817.31;171376;28;1062;-71
2022/05/10 00:24:23;;;;;;;17.73;15.90;;;19.70;53.90;;;13.84;80.06;101829.56;171424;28;848;-70
2022/05/10 00:24:29;;;;;;;17.66;15.82;;;19.70;53.90;;;13.83;80.29;101826.09;171400;28;1149;-72
2022/05/10 00:24:34;;;;;;;17.75;15.70;;;19.70;54.00;;;13.83;80.16;101815.59;172101;28;1117;-71
2022/05/10 00:24:40;;;;;;;18.80;15.77;;;19.70;54.00;;;13.83;80.46;101815.59;172095;28;986;-71
2022/05/10 00:24:46;;;;;;;19.05;15.45;;;19.70;54.00;;;13.82;80.48;101819.13;172107;28;856;-71
2022/05/10 00:24:52;;;;;;;19.23;15.23;;;19.70;54.00;;;13.82;80.58;101818.28;172074;28;868;-71
2022/05/10 00:24:57;;;;;;;18.67;15.30;;;19.70;54.00;;;13.82;80.41;101813.88;172441;28;883;-71
2022/05/10 00:25:08;;;;;;;18.27;15.40;;;19.70;54.00;;;13.82;80.64;101820.91;172771;28;1250;-71
2022/05/10 00:25:22;;;;;;;17.72;15.42;;;19.70;54.10;;;13.81;80.52;101822.66;172705;28;1274;-71
2022/05/10 00:25:30;;;;;;;17.89;15.63;;;19.60;54.10;;;13.81;80.47;101817.41;172745;28;1299;-71
2022/05/10 00:25:36;;;;;;;18.63;15.90;;;19.60;54.10;;;13.81;80.81;101820.03;173450;28;1091;-71
2022/05/10 00:25:42;;;;;;;17.90;15.93;;;19.60;54.10;;;13.80;80.42;101820.97;173383;28;1057;-71
2022/05/10 00:25:47;;;;;;;18.13;15.97;;;19.60;54.10;;;13.80;80.67;101820.97;173467;28;1215;-71
2022/05/10 00:25:53;;;;;;;18.37;15.83;;;19.60;54.20;;;13.79;80.81;101819.25;173323;28;1049;-71
2022/05/10 00:25:59;;;;;;;17.73;15.52;;;19.60;54.20;;;13.80;80.96;101820.09;173401;28;859;-71
2022/05/10 00:26:05;;;;;;;17.87;15.03;;;19.60;54.20;;;13.79;80.81;101814.00;173487;28;958;-71
2022/05/10 00:26:11;;;;;;;18.50;15.05;;;19.60;54.20;;;13.79;81.20;101819.25;173431;28;911;-71
2022/05/10 00:26:17;;;;;;;18.48;15.25;;;19.60;54.30;;;13.79;80.87;101816.63;173432;28;698;-71
2022/05/10 00:26:24;;;;;;;18.13;15.45;;;19.60;54.30;;;13.78;81.07;101818.41;173347;28;969;-71
2022/05/10 00:26:29;;;;;;;22.44;15.82;;;19.60;54.30;;;13.78;80.78;101818.41;173410;28;915;-71
2022/05/10 00:26:36;;;;;;;21.80;16.00;;;19.60;54.40;;;13.77;80.88;101821.94;173442;28;906;-71
2022/05/10 00:26:42;;;;;;;23.14;16.08;;;19.60;54.40;;;13.76;80.76;101814.97;173401;28;1084;-71
2022/05/10 00:26:48;;;;;;;23.48;15.95;;;19.60;54.30;;;13.76;81.07;101820.22;173427;28;1041;-71
2022/05/10 00:26:55;;;;;;;21.87;15.70;;;19.60;54.30;;;13.77;81.39;101821.09;173448;28;942;-71
2022/05/10 00:27:01;;;;;;;18.76;15.68;;;19.60;54.40;;;13.76;81.21;101822.84;173478;28;930;-72
2022/05/10 00:27:07;;;;;;;18.02;15.62;;;19.60;54.40;;;13.75;81.35;101812.41;173407;28;969;-71
2022/05/10 00:27:13;;;;;;;17.10;15.40;;;19.60;54.50;;;13.75;80.90;101820.28;173405;28;1104;-71
2022/05/10 00:27:19;;;;;;;17.48;15.68;;;19.60;54.50;;;13.74;81.04;101816.81;173374;28;938;-71
2022/05/10 00:27:24;;;;;;;17.67;15.85;;;19.60;54.50;;;13.73;81.54;101815.13;173717;28;898;-71
2022/05/10 00:27:30;;;;;;;17.80;15.90;;;19.60;54.60;;;13.74;81.66;101816.81;174113;28;977;-71
2022/05/10 00:27:36;;;;;;;18.38;16.13;;;19.60;54.60;;;13.73;81.48;101815.13;174103;28;1076;-71
2022/05/10 00:27:42;;;;;;;19.55;16.40;;;19.60;54.70;;;13.74;81.64;101815.97;172699;28;1077;-71
2022/05/10 00:27:48;;;;;;;19.90;16.30;;;19.60;54.70;;;13.73;82.05;101819.50;172764;28;915;-71
2022/05/10 00:27:55;;;;;;;20.02;16.42;;;19.60;54.70;;;13.73;81.75;101814.25;172774;28;978;-71
2022/05/10 00:28:01;;;;;;;20.36;16.32;;;19.60;54.80;;;13.72;81.98;101812.56;172712;28;1097;-71
2022/05/10 00:28:06;;;;;;;19.83;16.15;;;19.50;54.80;;;13.72;81.57;101818.63;172749;28;923;-71
2022/05/10 00:28:12;;;;;;;18.58;16.08;;;19.60;54.80;;;13.73;81.97;101814.25;172659;28;1910;-71
2022/05/10 00:28:18;;;;;;;18.95;16.13;;;19.60;54.80;;;13.72;81.71;101815.19;172749;28;1117;-71
2022/05/10 00:28:24;;;;;;;19.27;15.90;;;19.60;54.90;;;13.72;82.11;101821.25;172794;28;918;-71
2022/05/10 00:28:29;;;;;;;18.98;15.93;;;19.60;54.90;;;13.72;81.86;101817.81;172761;28;926;-71
2022/05/10 00:28:35;;;;;;;19.52;16.25;;;19.60;54.90;;;13.71;82.22;101816.06;172779;28;943;-71
2022/05/10 00:28:41;;;;;;;19.60;16.38;;;19.60;55.00;;;13.71;81.81;101816.06;172732;28;1065;-71
2022/05/10 00:28:47;;;;;;;19.03;16.20;;;19.60;55.00;;;13.70;82.17;101824.88;172719;28;1085;-70
2022/05/10 00:28:52;;;;;;;18.33;16.27;;;19.60;55.00;;;13.70;82.06;101819.63;171986;28;919;-71
2022/05/10 00:29:00;;;;;;;18.40;16.38;;;19.50;55.00;;;13.69;81.85;101823.16;171282;28;728;-71
2022/05/10 00:29:06;;;;;;;18.33;16.30;;;19.60;55.00;;;13.68;82.19;101816.22;171451;28;938;-71
2022/05/10 00:29:11;;;;;;;18.35;16.27;;;19.50;55.00;;;13.68;81.92;101821.47;171400;28;1101;-71
2022/05/10 00:29:17;;;;;;;18.63;16.33;;;19.50;55.00;;;13.67;82.23;101822.34;171398;28;963;-71
2022/05/10 00:29:23;;;;;;;19.43;16.33;;;19.60;55.00;;;13.67;82.24;101817.97;171389;28;924;-71
2022/05/10 00:29:28;;;;;;;20.08;16.52;;;19.50;55.00;;;13.68;82.42;101821.47;171376;28;1049;-71
2022/05/10 00:29:34;;;;;;;20.27;16.38;;;19.50;55.00;;;13.67;82.57;101819.75;171436;28;868;-71
2022/05/10 00:29:40;;;;;;;19.80;16.25;;;19.50;55.00;;;13.66;81.98;101818.91;172012;28;1038;-71
2022/05/10 00:29:46;;;;;;;19.97;16.40;;;19.50;55.00;;;13.67;82.40;101819.75;172729;28;903;-71
2022/05/10 00:29:51;;;;;;;19.50;16.50;;;19.50;55.00;;;13.67;82.39;101814.50;172744;28;843;-72
2022/05/10 00:29:57;;;;;;;19.15;16.40;;;19.50;55.10;;;13.65;82.20;101819.78;172738;28;868;-72
2022/05/10 00:30:05;;;;;;;19.07;16.47;;;19.50;55.10;;;13.65;82.21;101818.03;172744;28;918;-72
2022/05/10 00:30:14;;;;;;;18.94;16.50;;;19.60;55.10;;;13.65;82.16;101818.03;171932;28;2717;-71
2022/05/10 00:30:21;;;;;;;18.70;16.40;;;19.50;55.10;;;13.64;82.34;101815.47;172070;28;1108;-71
2022/05/10 00:30:27;;;;;;;18.34;16.40;;;19.50;55.10;;;13.64;82.68;101810.22;171925;28;1514;-71
2022/05/10 00:30:34;;;;;;;18.38;16.42;;;19.50;55.20;;;13.63;82.31;101819.88;172122;28;908;-71
2022/05/10 00:30:40;;;;;;;18.95;16.70;;;19.50;55.20;;;13.63;82.69;101813.78;172053;28;1086;-71
2022/05/10 00:30:46;;;;;;;19.43;17.00;;;19.50;55.20;;;13.62;83.00;101815.53;172048;28;994;-71